Time;durP1;ratioP1;P1;durP2;ratioP2;P2;SDS_P1;SDS_P2;PMS_P1;PMS_P2;Temp;Humidity;BMP_temperature;BMP_pressure;BME280_temperature;BME280_humidity;BME280_pressure;Samples;Min_cycle;Max_cycle;Signal;HPM_P1;HPM_P2
2023/03/31 00:02:22;;;;;;;1.83;0.90;;;12.20;99.90;;;;;;5034586;28;20064;-38
2023/03/31 00:04:58;;;;;;;2.45;1.00;;;12.20;99.90;;;;;;5034089;28;20067;-37
2023/03/31 00:07:24;;;;;;;2.08;1.10;;;12.30;99.90;;;;;;5035187;28;20105;-35
2023/03/31 00:09:53;;;;;;;3.63;1.20;;;12.20;99.90;;;;;;5032995;28;20025;-38
2023/03/31 00:12:20;;;;;;;3.00;1.15;;;12.30;99.90;;;;;;5034520;28;20208;-39
2023/03/31 00:14:46;;;;;;;2.35;0.82;;;12.20;99.90;;;;;;5034519;28;20048;-37
2023/03/31 00:17:12;;;;;;;3.08;1.13;;;12.20;99.90;;;;;;5033242;28;20411;-37
2023/03/31 00:19:40;;;;;;;3.95;1.20;;;12.30;99.90;;;;;;5033510;28;20051;-35
2023/03/31 00:22:07;;;;;;;2.65;1.05;;;12.30;99.90;;;;;;5033800;28;20092;-38
2023/03/31 00:24:33;;;;;;;3.65;1.23;;;12.30;99.90;;;;;;5033079;28;20028;-36
2023/03/31 00:27:00;;;;;;;3.88;1.33;;;12.30;99.90;;;;;;5032734;28;20021;-35
2023/03/31 00:29:26;;;;;;;3.45;1.13;;;12.30;99.90;;;;;;5033544;28;20026;-39
2023/03/31 00:31:53;;;;;;;3.10;1.08;;;12.30;99.90;;;;;;5034658;28;20108;-36
2023/03/31 00:34:20;;;;;;;3.22;1.00;;;12.20;99.90;;;;;;5034538;28;20053;-37
2023/03/31 00:36:48;;;;;;;3.47;1.15;;;12.30;99.90;;;;;;5032511;28;20087;-39
2023/03/31 00:39:18;;;;;;;3.50;1.15;;;12.30;99.90;;;;;;5034168;28;20021;-39
2023/03/31 00:41:44;;;;;;;2.63;1.00;;;12.20;99.90;;;;;;5033531;28;20018;-38
2023/03/31 00:44:28;;;;;;;3.38;0.82;;;12.20;99.90;;;;;;5033564;28;20053;-37
2023/03/31 00:47:14;;;;;;;3.10;0.85;;;12.20;99.90;;;;;;5033685;28;20033;-35
2023/03/31 00:49:48;;;;;;;2.45;1.10;;;12.20;99.90;;;;;;5033662;28;20095;-38
2023/03/31 00:52:40;;;;;;;1.95;1.08;;;12.20;99.90;;;;;;5033145;28;20025;-37
2023/03/31 00:55:11;;;;;;;2.45;0.80;;;12.20;99.90;;;;;;5033263;28;20029;-35
2023/03/31 00:57:38;;;;;;;1.77;1.05;;;12.20;99.90;;;;;;5031733;28;20034;-35
2023/03/31 01:00:17;;;;;;;2.53;0.98;;;12.20;99.90;;;;;;5032221;28;20422;-39
2023/03/31 01:02:58;;;;;;;1.48;1.00;;;12.30;99.90;;;;;;5033214;28;20409;-39
2023/03/31 01:05:35;;;;;;;2.08;1.10;;;12.20;99.90;;;;;;5032401;28;20029;-37
2023/03/31 01:08:04;;;;;;;2.05;1.10;;;12.20;99.90;;;;;;5031716;28;20037;-39
2023/03/31 01:10:40;;;;;;;2.17;0.98;;;12.20;99.90;;;;;;5031824;28;20387;-35
2023/03/31 01:13:11;;;;;;;2.30;1.10;;;12.20;99.90;;;;;;5031896;28;20033;-37
2023/03/31 01:15:37;;;;;;;2.15;0.90;;;12.20;99.90;;;;;;5031765;28;20087;-39
2023/03/31 01:18:05;;;;;;;2.05;0.93;;;12.20;99.90;;;;;;5031370;28;20038;-35
2023/03/31 01:20:34;;;;;;;2.28;1.00;;;12.20;99.90;;;;;;5031982;28;20056;-35
2023/03/31 01:23:12;;;;;;;0.98;0.68;;;12.20;99.90;;;;;;5032944;28;20468;-38
2023/03/31 01:25:49;;;;;;;2.30;1.02;;;12.20;99.90;;;;;;5032901;28;20025;-37
2023/03/31 01:28:19;;;;;;;2.45;1.10;;;12.20;99.90;;;;;;5033081;28;20024;-36
2023/03/31 01:31:20;;;;;;;2.42;0.93;;;12.20;99.90;;;;;;5032603;28;20045;-35
2023/03/31 01:34:07;;;;;;;1.35;0.90;;;12.20;99.90;;;;;;5032841;28;20057;-37
2023/03/31 01:36:42;;;;;;;2.78;1.02;;;12.20;99.90;;;;;;5030870;28;20018;-38
2023/03/31 01:39:26;;;;;;;2.88;1.08;;;12.20;99.90;;;;;;5031920;28;20388;-35
2023/03/31 01:42:16;;;;;;;3.65;1.30;;;12.20;99.90;;;;;;5031323;28;20032;-35
2023/03/31 01:45:15;;;;;;;2.63;1.00;;;12.20;99.90;;;;;;5031199;28;20033;-35
2023/03/31 01:48:13;;;;;;;2.30;0.90;;;12.20;99.90;;;;;;5028589;28;20112;-35
2023/03/31 01:50:52;;;;;;;2.10;1.08;;;12.20;99.90;;;;;;5031062;28;20032;-35
2023/03/31 01:53:27;;;;;;;1.60;1.00;;;12.20;99.90;;;;;;5031177;28;20025;-35
2023/03/31 01:56:18;;;;;;;2.33;1.00;;;12.20;99.90;;;;;;5030697;28;20056;-35
2023/03/31 01:59:07;;;;;;;3.95;1.23;;;12.20;99.90;;;;;;5030893;28;20115;-35
2023/03/31 02:02:01;;;;;;;1.77;1.05;;;12.20;99.90;;;;;;5030852;28;20060;-35
2023/03/31 02:04:36;;;;;;;1.98;1.00;;;12.20;99.90;;;;;;5030780;28;20032;-35
2023/03/31 02:07:19;;;;;;;3.67;0.98;;;12.20;99.90;;;;;;5030459;28;20075;-36
2023/03/31 02:09:49;;;;;;;1.67;1.00;;;12.20;99.90;;;;;;5030892;28;20021;-35
2023/03/31 02:12:19;;;;;;;3.22;0.95;;;12.20;99.90;;;;;;5031500;28;20495;-35
2023/03/31 02:14:49;;;;;;;2.72;1.17;;;12.20;99.90;;;;;;5030831;28;20068;-35
2023/03/31 02:17:19;;;;;;;3.90;1.25;;;12.20;99.90;;;;;;5030254;28;20025;-35
2023/03/31 02:19:50;;;;;;;3.03;1.23;;;12.20;99.90;;;;;;5030743;28;20052;-35
2023/03/31 02:22:18;;;;;;;4.57;1.40;;;12.20;99.90;;;;;;5031007;28;20037;-35
2023/03/31 02:24:46;;;;;;;4.25;1.40;;;12.10;99.90;;;;;;5031242;28;20013;-35
2023/03/31 02:27:20;;;;;;;2.97;1.23;;;12.20;99.90;;;;;;5030335;28;20029;-35
2023/03/31 02:29:46;;;;;;;3.40;1.30;;;12.20;99.90;;;;;;5034161;28;20026;-35
2023/03/31 02:32:15;;;;;;;5.68;1.17;;;12.20;99.90;;;;;;5034675;28;20426;-35
2023/03/31 02:34:41;;;;;;;2.72;1.10;;;12.20;99.90;;;;;;5034629;28;20033;-36
2023/03/31 02:37:07;;;;;;;3.45;1.00;;;12.20;99.90;;;;;;5034216;28;20025;-36
2023/03/31 02:39:35;;;;;;;4.55;1.42;;;12.20;99.90;;;;;;5034659;28;20040;-35
2023/03/31 02:42:06;;;;;;;2.95;1.10;;;12.20;99.90;;;;;;5034428;28;20525;-37
2023/03/31 02:44:33;;;;;;;3.65;1.30;;;12.20;99.90;;;;;;5034541;28;20105;-36
2023/03/31 02:47:00;;;;;;;3.30;1.20;;;12.20;99.90;;;;;;5034044;28;20319;-35
2023/03/31 02:49:25;;;;;;;1.73;0.98;;;12.20;99.90;;;;;;5033028;28;20052;-36
2023/03/31 02:52:14;;;;;;;2.30;1.00;;;12.20;99.90;;;;;;5034394;28;20056;-35
2023/03/31 02:54:59;;;;;;;2.72;1.23;;;12.10;99.90;;;;;;5034236;28;20574;-35
2023/03/31 02:57:44;;;;;;;;;;;12.20;99.90;;;;;;5034230;28;20033;-35
2023/03/31 03:00:35;;;;;;;6.07;1.08;;;12.20;99.90;;;;;;5034266;28;20344;-35
2023/03/31 03:03:36;;;;;;;2.95;1.00;;;12.20;99.90;;;;;;5034035;28;20548;-35
2023/03/31 03:06:23;;;;;;;3.45;1.20;;;12.20;99.90;;;;;;5033665;28;20037;-35
2023/03/31 03:08:54;;;;;;;2.40;1.10;;;12.20;99.90;;;;;;5034105;28;20021;-35
2023/03/31 03:11:20;;;;;;;2.97;1.30;;;12.20;99.90;;;;;;5033930;28;20025;-35
2023/03/31 03:14:14;;;;;;;2.97;0.93;;;12.20;99.90;;;;;;5034398;28;20392;-35
2023/03/31 03:16:48;;;;;;;3.78;1.30;;;12.20;99.90;;;;;;5033903;28;20021;-35
2023/03/31 03:19:19;;;;;;;2.85;1.08;;;12.20;99.90;;;;;;5034307;28;20036;-35
2023/03/31 03:21:46;;;;;;;2.72;1.13;;;12.20;99.90;;;;;;5033666;28;20037;-35
2023/03/31 03:24:16;;;;;;;3.88;1.40;;;12.20;99.90;;;;;;5033699;28;20028;-35
2023/03/31 03:26:43;;;;;;;3.08;1.20;;;12.20;99.90;;;;;;5033300;28;20056;-35
2023/03/31 03:29:12;;;;;;;3.92;1.02;;;12.20;99.90;;;;;;5033453;28;20071;-35
2023/03/31 03:31:38;;;;;;;3.60;1.48;;;12.10;99.90;;;;;;5033661;28;20025;-35
2023/03/31 03:34:03;;;;;;;3.00;1.00;;;12.10;99.90;;;;;;5033405;28;20045;-35
2023/03/31 03:36:29;;;;;;;2.80;1.10;;;12.10;99.90;;;;;;5033060;28;20510;-35
2023/03/31 03:38:55;;;;;;;3.28;1.10;;;12.10;99.90;;;;;;5033147;28;20049;-35
2023/03/31 03:41:20;;;;;;;3.03;1.05;;;12.10;99.90;;;;;;5033406;28;20096;-35
2023/03/31 03:43:46;;;;;;;4.82;1.17;;;12.10;99.90;;;;;;5033361;28;20419;-35
2023/03/31 03:46:11;;;;;;;4.57;1.15;;;12.10;99.90;;;;;;5032960;28;20072;-35
2023/03/31 03:48:37;;;;;;;4.70;1.33;;;12.10;99.90;;;;;;5033422;28;20479;-35
2023/03/31 03:51:03;;;;;;;3.67;1.60;;;12.10;99.90;;;;;;5033527;28;20052;-35
2023/03/31 03:53:29;;;;;;;5.18;1.63;;;12.10;99.90;;;;;;5033215;28;20057;-35
2023/03/31 03:55:55;;;;;;;3.05;1.50;;;12.20;99.90;;;;;;5033076;28;20064;-35
2023/03/31 03:58:20;;;;;;;3.92;1.52;;;12.10;99.90;;;;;;5033130;28;20017;-35
2023/03/31 04:00:46;;;;;;;3.80;1.40;;;12.10;99.90;;;;;;5032977;28;20039;-36
2023/03/31 04:03:12;;;;;;;3.88;1.20;;;12.10;99.90;;;;;;5032920;28;20509;-35
2023/03/31 04:05:38;;;;;;;3.13;1.10;;;12.10;99.90;;;;;;5033169;28;20116;-37
2023/03/31 04:08:05;;;;;;;5.35;1.70;;;12.10;99.90;;;;;;5032573;28;20026;-35
2023/03/31 04:10:30;;;;;;;4.00;1.30;;;12.10;99.90;;;;;;5032919;28;20437;-36
2023/03/31 04:12:56;;;;;;;3.60;1.40;;;12.10;99.90;;;;;;5033659;28;20021;-35
2023/03/31 04:15:22;;;;;;;4.18;1.42;;;12.10;99.90;;;;;;5032869;28;20033;-35
2023/03/31 04:17:49;;;;;;;2.78;1.25;;;12.10;99.90;;;;;;5032323;28;20034;-34
2023/03/31 04:20:16;;;;;;;4.20;1.35;;;12.10;99.90;;;;;;5032848;28;20033;-35
2023/03/31 04:22:45;;;;;;;3.70;1.55;;;12.10;99.90;;;;;;5032627;28;20029;-35
2023/03/31 04:25:15;;;;;;;3.05;1.30;;;12.10;99.90;;;;;;5032698;28;20108;-35
2023/03/31 04:27:49;;;;;;;3.03;1.38;;;12.10;99.90;;;;;;5032194;28;20215;-35
2023/03/31 04:30:21;;;;;;;2.35;1.25;;;12.10;99.90;;;;;;5032657;28;20021;-36
2023/03/31 04:32:51;;;;;;;3.78;1.38;;;12.00;99.90;;;;;;5032508;28;20061;-35
2023/03/31 04:35:19;;;;;;;3.08;1.10;;;12.00;99.90;;;;;;5031186;28;20399;-36
2023/03/31 04:37:46;;;;;;;2.85;1.30;;;12.00;99.90;;;;;;5032004;28;20025;-35
2023/03/31 04:40:12;;;;;;;4.18;1.52;;;12.00;99.90;;;;;;5032407;28;20056;-35
2023/03/31 04:42:38;;;;;;;3.10;1.52;;;12.00;99.90;;;;;;5032171;28;20487;-35
2023/03/31 04:45:04;;;;;;;4.15;1.50;;;12.00;99.90;;;;;;5030890;28;20022;-35
2023/03/31 04:47:30;;;;;;;4.20;1.45;;;12.00;99.90;;;;;;5031844;28;20065;-35
2023/03/31 04:49:55;;;;;;;4.93;1.60;;;12.00;99.90;;;;;;5032457;28;20053;-36
2023/03/31 04:52:21;;;;;;;4.40;1.25;;;12.00;99.90;;;;;;5031277;28;20069;-35
2023/03/31 04:54:47;;;;;;;2.42;1.20;;;12.00;99.90;;;;;;5030703;28;20525;-35
2023/03/31 04:57:12;;;;;;;3.90;1.63;;;12.00;99.90;;;;;;5031498;28;20037;-35
2023/03/31 04:59:38;;;;;;;3.58;1.30;;;12.00;99.90;;;;;;5031922;28;20029;-37
2023/03/31 05:02:04;;;;;;;2.88;1.40;;;12.00;99.90;;;;;;5032138;28;20503;-35
2023/03/31 05:04:29;;;;;;;3.83;1.48;;;12.00;99.90;;;;;;5033011;28;20379;-35
2023/03/31 05:06:55;;;;;;;3.55;1.40;;;12.00;99.90;;;;;;5031658;28;20018;-35
2023/03/31 05:09:21;;;;;;;2.38;1.33;;;12.00;99.90;;;;;;5032100;28;20021;-35
2023/03/31 05:11:46;;;;;;;3.88;1.40;;;12.00;99.90;;;;;;5031732;28;20022;-36
2023/03/31 05:14:12;;;;;;;3.53;1.20;;;12.00;99.90;;;;;;5032068;28;20108;-36
2023/03/31 05:16:38;;;;;;;3.30;1.50;;;12.00;99.90;;;;;;5031226;28;20013;-35
2023/03/31 05:19:03;;;;;;;2.47;1.27;;;12.00;99.90;;;;;;5031569;28;20021;-35
2023/03/31 05:21:30;;;;;;;2.58;1.30;;;12.00;99.90;;;;;;5031521;28;20030;-35
2023/03/31 05:23:56;;;;;;;3.97;1.40;;;12.00;99.90;;;;;;5031468;28;20022;-35
2023/03/31 05:26:24;;;;;;;5.47;1.58;;;12.00;99.90;;;;;;5031084;28;20032;-36
2023/03/31 05:28:50;;;;;;;3.40;1.60;;;12.00;99.90;;;;;;5031300;28;20071;-35
2023/03/31 05:31:16;;;;;;;4.60;2.08;;;12.00;99.90;;;;;;5031387;28;20025;-35
2023/03/31 05:33:42;;;;;;;4.88;1.90;;;12.00;99.90;;;;;;5030130;28;20021;-35
2023/03/31 05:36:10;;;;;;;4.72;1.75;;;12.00;99.90;;;;;;5030804;28;20098;-35
2023/03/31 05:38:36;;;;;;;2.80;1.20;;;12.00;99.90;;;;;;5031345;28;20031;-35
2023/03/31 05:41:01;;;;;;;2.58;1.50;;;11.90;99.90;;;;;;5032072;28;20024;-36
2023/03/31 05:43:27;;;;;;;3.63;1.52;;;12.00;99.90;;;;;;5032459;28;20033;-35
2023/03/31 05:45:53;;;;;;;4.82;1.55;;;11.90;99.90;;;;;;5031412;28;20029;-35
2023/03/31 05:48:18;;;;;;;4.53;1.63;;;12.00;99.90;;;;;;5031115;28;20022;-35
2023/03/31 05:50:44;;;;;;;4.90;1.60;;;12.00;99.90;;;;;;5031145;28;20040;-38
2023/03/31 05:53:10;;;;;;;5.07;1.90;;;12.00;99.90;;;;;;5031231;28;20073;-36
2023/03/31 05:55:36;;;;;;;4.65;1.67;;;12.00;99.90;;;;;;5031835;28;20056;-35
2023/03/31 05:58:02;;;;;;;2.72;1.55;;;12.00;99.90;;;;;;5031362;28;20419;-35
2023/03/31 06:00:27;;;;;;;4.25;1.50;;;12.00;99.90;;;;;;5031638;28;20040;-35
2023/03/31 06:02:53;;;;;;;2.47;1.50;;;12.00;99.90;;;;;;5031065;28;20479;-35
2023/03/31 06:05:19;;;;;;;4.70;1.67;;;12.00;99.90;;;;;;5030858;28;20466;-36
2023/03/31 06:07:44;;;;;;;3.05;1.60;;;12.00;99.90;;;;;;5030488;28;20013;-35
2023/03/31 06:10:10;;;;;;;4.18;1.88;;;12.00;99.90;;;;;;5029994;28;20033;-39
2023/03/31 06:12:36;;;;;;;3.55;1.42;;;12.00;99.90;;;;;;5031775;28;20479;-38
2023/03/31 06:15:02;;;;;;;3.75;1.50;;;11.90;99.90;;;;;;5032014;28;20034;-40
2023/03/31 06:17:28;;;;;;;3.97;1.85;;;12.00;99.90;;;;;;5031791;28;20422;-37
2023/03/31 06:19:54;;;;;;;5.43;1.80;;;12.00;99.90;;;;;;5032154;28;20096;-37
2023/03/31 06:22:20;;;;;;;2.85;1.50;;;12.00;99.90;;;;;;5033329;28;20083;-36
2023/03/31 06:24:46;;;;;;;5.38;2.17;;;12.00;99.90;;;;;;5031346;28;20503;-35
2023/03/31 06:27:11;;;;;;;3.63;1.55;;;12.00;99.90;;;;;;5031111;28;20018;-37
2023/03/31 06:29:38;;;;;;;3.67;1.90;;;12.00;99.90;;;;;;5031250;28;20029;-38
2023/03/31 06:32:03;;;;;;;2.85;1.50;;;11.90;99.90;;;;;;5030797;28;20487;-35
2023/03/31 06:34:30;;;;;;;4.80;1.80;;;11.90;99.90;;;;;;5031901;28;20045;-35
2023/03/31 06:36:55;;;;;;;2.83;1.50;;;11.90;99.90;;;;;;5030649;28;20343;-37
2023/03/31 06:39:21;;;;;;;4.25;1.77;;;11.90;99.90;;;;;;5032273;28;20501;-35
2023/03/31 06:41:47;;;;;;;2.70;1.80;;;11.90;99.90;;;;;;5033037;28;20121;-38
2023/03/31 06:44:15;;;;;;;5.88;2.13;;;11.90;99.90;;;;;;5032102;28;20025;-36
2023/03/31 06:46:41;;;;;;;4.72;1.92;;;12.00;99.90;;;;;;5031474;28;20080;-35
2023/03/31 06:49:08;;;;;;;3.78;2.05;;;12.00;99.90;;;;;;5031975;28;20079;-37
2023/03/31 06:51:34;;;;;;;5.38;2.15;;;12.00;99.90;;;;;;5031638;28;20025;-40
2023/03/31 06:54:00;;;;;;;7.95;2.33;;;12.00;99.90;;;;;;5031872;28;20083;-37
2023/03/31 06:56:26;;;;;;;5.55;1.95;;;12.00;99.90;;;;;;5031674;28;20022;-35
2023/03/31 06:58:52;;;;;;;2.90;2.00;;;12.00;99.90;;;;;;5030823;28;20109;-39
2023/03/31 07:01:18;;;;;;;4.07;1.75;;;11.90;99.90;;;;;;5032124;28;20455;-37
2023/03/31 07:03:43;;;;;;;2.38;1.70;;;11.90;99.90;;;;;;5030598;28;20038;-39
2023/03/31 07:06:09;;;;;;;2.60;1.75;;;12.00;99.90;;;;;;5031839;28;20053;-37
2023/03/31 07:08:35;;;;;;;6.05;1.88;;;12.00;99.90;;;;;;5031119;28;20061;-38
2023/03/31 07:11:01;;;;;;;7.15;2.22;;;12.00;99.90;;;;;;5031006;28;20438;-38
2023/03/31 07:13:27;;;;;;;4.13;1.70;;;12.00;99.90;;;;;;5030725;28;20471;-35
2023/03/31 07:15:54;;;;;;;3.22;1.80;;;12.00;99.90;;;;;;5033627;28;20667;-36
2023/03/31 07:18:20;;;;;;;4.18;1.92;;;12.00;99.90;;;;;;5033894;28;20095;-37
2023/03/31 07:20:49;;;;;;;5.20;2.05;;;11.90;99.90;;;;;;5033827;28;20472;-36
2023/03/31 07:23:15;;;;;;;5.45;1.77;;;11.90;99.90;;;;;;5033596;28;20491;-35
2023/03/31 07:25:41;;;;;;;4.95;2.17;;;11.90;99.90;;;;;;5033586;28;20025;-35
2023/03/31 07:28:07;;;;;;;1.92;1.45;;;11.90;99.90;;;;;;5033455;28;20048;-35
2023/03/31 07:30:32;;;;;;;4.70;1.90;;;11.90;99.90;;;;;;5033857;28;20058;-35
2023/03/31 07:32:59;;;;;;;2.47;1.80;;;11.90;99.90;;;;;;5034927;28;20083;-35
2023/03/31 07:35:25;;;;;;;3.47;1.50;;;11.90;99.90;;;;;;5034205;28;20033;-35
2023/03/31 07:37:51;;;;;;;4.70;1.75;;;11.90;99.90;;;;;;5034240;28;20530;-36
2023/03/31 07:40:23;;;;;;;2.20;1.35;;;11.90;99.90;;;;;;5033604;28;20021;-36
2023/03/31 07:42:50;;;;;;;4.35;1.65;;;11.90;99.90;;;;;;5034500;28;20026;-36
2023/03/31 07:45:17;;;;;;;2.85;1.40;;;11.90;99.90;;;;;;5033769;28;20133;-35
2023/03/31 07:47:45;;;;;;;2.75;1.50;;;11.90;99.90;;;;;;5033117;28;20088;-35
2023/03/31 07:50:11;;;;;;;3.17;1.40;;;11.90;99.90;;;;;;5033665;28;20013;-35
2023/03/31 07:52:37;;;;;;;3.35;1.80;;;11.90;99.90;;;;;;5033290;28;20052;-37
2023/03/31 07:55:04;;;;;;;4.05;1.70;;;11.90;99.90;;;;;;5033130;28;20117;-38
2023/03/31 07:57:29;;;;;;;2.88;1.60;;;11.90;99.90;;;;;;5032625;28;20049;-36
2023/03/31 07:59:55;;;;;;;2.53;1.50;;;11.90;99.90;;;;;;5033061;28;20080;-35
2023/03/31 08:02:21;;;;;;;2.17;1.33;;;11.90;99.90;;;;;;5032998;28;20045;-35
2023/03/31 08:04:46;;;;;;;2.72;1.60;;;11.90;99.90;;;;;;5033122;28;20083;-35
2023/03/31 08:07:15;;;;;;;3.95;1.60;;;12.00;99.90;;;;;;5033300;28;20100;-35
2023/03/31 08:09:44;;;;;;;2.63;1.60;;;12.00;99.90;;;;;;5033324;28;20101;-35
2023/03/31 08:12:11;;;;;;;3.90;1.88;;;12.00;99.90;;;;;;5034377;28;20416;-35
2023/03/31 08:14:37;;;;;;;1.88;1.20;;;12.00;99.90;;;;;;5034750;28;20077;-39
2023/03/31 08:17:02;;;;;;;3.42;1.67;;;12.00;99.90;;;;;;5033331;28;20140;-37
2023/03/31 08:19:28;;;;;;;2.17;1.35;;;12.00;99.90;;;;;;5034708;28;20407;-36
2023/03/31 08:21:54;;;;;;;3.55;1.25;;;12.00;99.90;;;;;;5034156;28;20032;-38
2023/03/31 08:24:20;;;;;;;1.77;1.17;;;12.00;99.90;;;;;;5033562;28;20026;-36
2023/03/31 08:26:46;;;;;;;2.50;1.23;;;12.00;99.90;;;;;;5033627;28;20486;-38
2023/03/31 08:29:12;;;;;;;2.50;1.45;;;12.00;99.90;;;;;;5033517;28;20036;-39
2023/03/31 08:31:38;;;;;;;4.40;1.50;;;12.00;99.90;;;;;;5033717;28;20195;-35
2023/03/31 08:34:05;;;;;;;2.35;1.50;;;12.00;99.90;;;;;;5033781;28;20163;-35
2023/03/31 08:36:31;;;;;;;1.65;1.20;;;12.00;99.90;;;;;;5033209;28;20024;-35
2023/03/31 08:38:58;;;;;;;2.30;1.38;;;12.10;99.90;;;;;;5033443;28;20025;-35
2023/03/31 08:42:01;;;;;;;2.40;1.33;;;12.10;99.90;;;;;;5033476;28;20048;-37
2023/03/31 08:44:43;;;;;;;3.58;1.48;;;12.10;99.90;;;;;;5032536;28;20148;-38
2023/03/31 08:47:16;;;;;;;1.70;1.08;;;12.10;99.90;;;;;;5032239;28;20033;-36
2023/03/31 08:50:12;;;;;;;2.37;1.23;;;12.10;99.90;;;;;;5032671;28;20057;-39
2023/03/31 08:52:42;;;;;;;2.20;1.20;;;12.10;99.90;;;;;;5032191;28;20115;-37
2023/03/31 08:55:15;;;;;;;4.03;1.40;;;12.10;99.90;;;;;;5032889;28;20021;-35
2023/03/31 08:57:55;;;;;;;2.10;1.25;;;12.10;99.90;;;;;;5032561;28;20454;-35
2023/03/31 09:00:21;;;;;;;2.45;1.20;;;12.10;99.90;;;;;;5032583;28;20067;-38
2023/03/31 09:02:54;;;;;;;1.75;1.10;;;12.10;99.90;;;;;;5032186;28;20434;-35
2023/03/31 09:05:36;;;;;;;2.40;1.20;;;12.10;99.90;;;;;;5032535;28;20388;-36
2023/03/31 09:08:17;;;;;;;1.73;1.10;;;12.20;99.90;;;;;;5031407;28;20022;-38
2023/03/31 09:11:05;;;;;;;1.52;1.15;;;12.20;99.90;;;;;;5032517;28;20025;-40
2023/03/31 09:13:54;;;;;;;2.20;1.13;;;12.20;99.90;;;;;;5032077;28;20049;-38
2023/03/31 09:16:26;;;;;;;1.95;1.25;;;12.20;99.90;;;;;;5031986;28;20108;-37
2023/03/31 09:18:58;;;;;;;2.78;0.98;;;12.20;99.90;;;;;;5032559;28;20495;-37
2023/03/31 09:21:31;;;;;;;3.35;1.23;;;12.20;99.90;;;;;;5031800;28;20029;-35
2023/03/31 09:24:26;;;;;;;2.35;1.08;;;12.20;99.90;;;;;;5032009;28;20502;-35
2023/03/31 09:26:54;;;;;;;;;;;12.20;99.90;;;;;;5031824;28;20025;-38
2023/03/31 09:29:23;;;;;;;1.92;1.10;;;12.20;99.90;;;;;;5032188;28;19905;-39
2023/03/31 09:31:49;;;;;;;4.20;1.25;;;12.20;99.90;;;;;;5031494;28;20021;-36
2023/03/31 09:34:32;;;;;;;2.33;1.10;;;12.30;99.90;;;;;;5031470;28;20033;-35
2023/03/31 09:36:57;;;;;;;2.30;1.27;;;12.30;99.90;;;;;;5030609;28;20017;-37
2023/03/31 09:39:23;;;;;;;3.75;1.15;;;12.30;99.90;;;;;;5031550;28;20025;-35
2023/03/31 09:41:51;;;;;;;2.03;1.20;;;12.30;99.90;;;;;;5031460;28;20029;-37
2023/03/31 09:44:24;;;;;;;2.83;0.98;;;12.30;99.90;;;;;;5031327;28;20032;-40
2023/03/31 09:46:51;;;;;;;3.33;1.30;;;12.40;99.90;;;;;;5030892;28;20471;-35
2023/03/31 09:49:20;;;;;;;3.05;1.23;;;12.40;99.90;;;;;;5031360;28;20187;-35
2023/03/31 09:51:59;;;;;;;2.35;1.00;;;12.40;99.90;;;;;;5031541;28;20087;-37
2023/03/31 09:54:33;;;;;;;2.17;0.98;;;12.40;99.90;;;;;;5031168;28;20025;-35
2023/03/31 09:56:59;;;;;;;3.20;1.05;;;12.40;99.90;;;;;;5029843;28;20025;-35
2023/03/31 09:59:33;;;;;;;3.22;1.38;;;12.40;99.90;;;;;;5031228;28;20021;-35
2023/03/31 10:02:02;;;;;;;5.47;1.08;;;12.40;99.90;;;;;;5031063;28;20033;-35
2023/03/31 10:04:31;;;;;;;6.60;1.60;;;12.40;99.90;;;;;;5030905;28;20026;-35
2023/03/31 10:06:59;;;;;;;3.70;1.10;;;12.30;99.90;;;;;;5030834;28;20426;-37
2023/03/31 10:09:29;;;;;;;2.47;1.02;;;12.30;99.90;;;;;;5031107;28;20087;-35
2023/03/31 10:12:02;;;;;;;3.35;1.10;;;12.40;99.90;;;;;;5030930;28;20092;-36
2023/03/31 10:14:40;;;;;;;2.72;1.13;;;12.40;99.90;;;;;;5031271;28;20029;-35
2023/03/31 10:17:06;;;;;;;2.70;1.20;;;12.40;99.90;;;;;;5030314;28;20091;-39
2023/03/31 10:19:36;;;;;;;2.85;1.10;;;12.40;99.90;;;;;;5031188;28;20311;-35
2023/03/31 10:22:26;;;;;;;3.70;1.08;;;12.40;99.90;;;;;;5031429;28;20025;-38
2023/03/31 10:24:53;;;;;;;2.85;1.00;;;12.50;99.90;;;;;;5030817;28;20036;-37
2023/03/31 10:27:30;;;;;;;3.00;1.10;;;12.50;99.90;;;;;;5030340;28;20120;-38
2023/03/31 10:30:02;;;;;;;2.22;1.00;;;12.50;99.90;;;;;;5030985;28;20116;-37
2023/03/31 10:32:32;;;;;;;2.78;0.95;;;12.50;99.90;;;;;;5030612;28;20091;-35
2023/03/31 10:35:30;;;;;;;5.05;1.08;;;12.50;99.90;;;;;;5030707;28;20034;-35
2023/03/31 10:38:00;;;;;;;3.33;0.90;;;12.50;99.90;;;;;;5031754;28;20052;-38
2023/03/31 10:40:30;;;;;;;3.20;1.10;;;12.60;99.90;;;;;;5030816;28;20391;-35
2023/03/31 10:43:11;;;;;;;3.33;1.30;;;12.60;99.90;;;;;;5030991;28;20029;-35
2023/03/31 10:45:46;;;;;;;4.40;1.38;;;12.60;99.90;;;;;;5030656;28;20028;-35
2023/03/31 10:48:28;;;;;;;2.80;1.08;;;12.60;99.90;;;;;;5030319;28;20026;-34
2023/03/31 10:51:10;;;;;;;3.03;1.30;;;12.60;99.90;;;;;;5034313;28;20508;-37
2023/03/31 10:53:41;;;;;;;4.47;1.20;;;12.50;99.90;;;;;;5034310;28;20403;-35
2023/03/31 10:56:09;;;;;;;3.17;1.08;;;12.50;99.90;;;;;;5033990;28;20036;-35
2023/03/31 10:58:47;;;;;;;3.83;1.13;;;12.50;99.90;;;;;;5034216;28;20025;-38
2023/03/31 11:01:28;;;;;;;11.63;2.17;;;12.50;99.90;;;;;;5034095;28;20029;-37
2023/03/31 11:04:11;;;;;;;12.05;2.00;;;12.50;99.90;;;;;;5033914;28;20029;-41
2023/03/31 11:06:56;;;;;;;11.55;1.65;;;12.60;99.90;;;;;;5034123;28;20034;-39
2023/03/31 11:09:30;;;;;;;9.80;1.73;;;12.60;99.90;;;;;;5034239;28;20021;-36
2023/03/31 11:12:05;;;;;;;6.05;1.50;;;12.50;99.90;;;;;;5034296;28;20559;-37
2023/03/31 11:14:41;;;;;;;6.35;1.40;;;12.60;99.90;;;;;;5034438;28;20025;-39
2023/03/31 11:17:45;;;;;;;8.90;1.50;;;12.60;99.90;;;;;;5033644;28;20044;-36
2023/03/31 11:20:31;;;;;;;8.05;1.77;;;12.60;99.90;;;;;;5034422;28;20488;-36
2023/03/31 11:23:15;;;;;;;7.20;1.45;;;12.60;99.90;;;;;;5024242;28;20442;-36
2023/03/31 11:25:51;;;;;;;7.03;1.40;;;12.60;99.90;;;;;;5033560;28;20022;-37
2023/03/31 11:28:37;;;;;;;8.77;1.67;;;12.60;99.90;;;;;;5034130;28;20100;-36
2023/03/31 11:31:40;;;;;;;6.18;1.58;;;12.60;99.90;;;;;;5033345;28;20545;-37
2023/03/31 11:34:30;;;;;;;6.68;1.75;;;12.60;99.90;;;;;;5022794;28;20042;-36
2023/03/31 11:37:20;;;;;;;5.28;1.50;;;12.60;99.90;;;;;;5033744;28;20107;-36
2023/03/31 11:40:00;;;;;;;5.68;1.15;;;12.60;99.90;;;;;;5034648;28;20108;-38
2023/03/31 11:42:38;;;;;;;5.40;1.13;;;12.60;99.90;;;;;;5033717;28;20428;-36
2023/03/31 11:45:20;;;;;;;5.95;1.10;;;12.50;99.90;;;;;;5034330;28;20041;-37
2023/03/31 11:47:50;;;;;;;3.90;1.10;;;12.50;99.90;;;;;;5033288;28;20033;-36
2023/03/31 11:50:20;;;;;;;7.22;1.30;;;12.50;99.90;;;;;;5034476;28;20334;-37
2023/03/31 11:52:59;;;;;;;6.43;1.77;;;12.50;99.90;;;;;;5033671;28;20360;-39
2023/03/31 11:55:27;;;;;;;6.97;1.10;;;12.50;99.90;;;;;;5033555;28;20025;-38
2023/03/31 11:57:58;;;;;;;3.80;1.10;;;12.50;99.90;;;;;;5033288;28;20108;-37
2023/03/31 12:00:33;;;;;;;3.47;0.90;;;12.50;99.90;;;;;;5033255;28;20025;-38
2023/03/31 12:02:59;;;;;;;3.65;1.15;;;12.50;99.90;;;;;;5033624;28;20026;-39
2023/03/31 12:05:27;;;;;;;4.72;0.80;;;12.50;99.90;;;;;;5033826;28;20424;-38
2023/03/31 12:08:16;;;;;;;1.92;0.70;;;12.50;99.90;;;;;;5033185;28;20044;-36
2023/03/31 12:10:50;;;;;;;2.90;1.00;;;12.50;99.90;;;;;;5034344;28;20091;-36
2023/03/31 12:13:34;;;;;;;;;;;12.50;99.90;;;;;;5034217;28;20523;-35
2023/03/31 12:16:16;;;;;;;2.50;0.88;;;12.50;99.90;;;;;;5032797;28;20382;-38
2023/03/31 12:19:13;;;;;;;3.00;0.90;;;12.50;99.90;;;;;;5033042;28;20522;-38
2023/03/31 12:21:46;;;;;;;4.63;0.80;;;12.50;99.90;;;;;;5032834;28;20032;-38
2023/03/31 12:24:12;;;;;;;2.17;0.77;;;12.60;99.90;;;;;;5033743;28;20112;-36
2023/03/31 12:27:06;;;;;;;2.50;0.77;;;12.60;99.90;;;;;;5032219;28;20079;-36
2023/03/31 12:29:37;;;;;;;2.53;1.10;;;12.60;99.90;;;;;;5032795;28;20039;-38
2023/03/31 12:32:18;;;;;;;3.58;0.80;;;12.60;99.90;;;;;;5032692;28;20049;-37
2023/03/31 12:35:20;;;;;;;2.13;0.60;;;12.60;99.90;;;;;;5032592;28;20057;-38
2023/03/31 12:38:21;;;;;;;1.85;0.70;;;12.70;99.90;;;;;;5028127;28;20374;-38
2023/03/31 12:41:11;;;;;;;5.22;0.93;;;12.60;99.90;;;;;;5031275;28;20618;-40
2023/03/31 12:43:49;;;;;;;2.50;0.60;;;12.70;99.90;;;;;;5032406;28;20041;-37
2023/03/31 12:46:40;;;;;;;1.75;0.57;;;12.70;99.90;;;;;;5032034;28;20018;-39
2023/03/31 12:49:08;;;;;;;1.85;0.60;;;12.70;99.90;;;;;;5032478;28;20025;-36
2023/03/31 12:51:42;;;;;;;1.27;0.57;;;12.70;99.90;;;;;;5032403;28;20399;-37
2023/03/31 12:54:08;;;;;;;;;;;12.80;99.90;;;;;;5032634;28;20021;-37
2023/03/31 12:56:59;;;;;;;2.80;0.50;;;12.70;99.90;;;;;;5031796;28;19991;-36
2023/03/31 12:59:35;;;;;;;2.03;0.63;;;12.70;99.90;;;;;;5032051;28;20511;-36
2023/03/31 13:02:25;;;;;;;1.77;0.68;;;12.60;99.90;;;;;;5031911;28;20518;-36
2023/03/31 13:04:52;;;;;;;2.45;0.77;;;12.60;99.90;;;;;;5028977;28;20107;-38
2023/03/31 13:07:26;;;;;;;3.70;0.80;;;12.60;99.90;;;;;;5031333;28;20022;-39
2023/03/31 13:10:15;;;;;;;4.13;0.75;;;12.60;99.90;;;;;;5032004;28;20021;-40
2023/03/31 13:12:42;;;;;;;2.53;0.90;;;12.70;99.90;;;;;;5031051;28;20032;-37
2023/03/31 13:15:13;;;;;;;2.70;1.00;;;12.70;99.90;;;;;;5031664;28;20029;-35